LGAVLGSM

Guest
Details From LGAV - Athens Intl Airport Elefterios Venizel
To LGSM - SAMOS
Flight Number -
Tags generated
Created
Modified
Stats Distance 142 nm / 262 km
Max Altitude 7,900 ft / 2,408 m
Waypoints 3
Social Downloads 13
Likes 0
Share VATSIM

Download

Looking for another format? Having issues loading an existing format? Contact us
Advertisement - Login to hide

Notes

Basic altitude profile: - Ascent Rate: 2500ft/min - Ascent Speed: 250kts - Cruise Altitude: 20000ft - Cruise Speed: 420kts - Descent Rate: 1500ft/min - Descent Speed: 250kts

Route

LGAV ERIMA LGSM

ID Type Via Altitude Latitude Longitude Leg Dist Tot Dist Heading (true) Name
O LGAV APT - 0 ft / 0 m 37.93636˚ 23.94447˚ - 0 nm - Athens Intl Airport Elefterios Venizel
ERIMA FIX - 7,900 ft / 2,408 m 37.74707˚ 26.13388˚ 104 nm 104 nm 96° / 97° -
O LGSM APT - 0 ft / 0 m 37.68901˚ 26.91112˚ 37 nm 141 nm 95° / 96° SAMOS

Altitude Profile

Advertisement - Login to hide

LGAV

Details ICAO LGAV (ATH)
Name Athens Intl Airport Elefterios Venizel
Region Greece
Timezone Europe/Athens (UTC+2.0)
Stats Elevation 308 ft / 94 m (AMSL)
Location 37.936357° 23.944470°
Runways 2
Magnetic Variation 4.485° E

METAR

LGAV 161450Z 19019KT 9999 FEW018 SCT025 BKN070 16/11 Q1011 NOSIG

Decode

TAF

TAF TAF LGAV 161100Z 1612/1712 19022G32KT 9999 FEW018 SCT025 PROB30 TEMPO 1612/1624 5000 RA SCT015 BKN070 PROB30 TEMPO 1614/1621 4000 TSRA SCT012 FEW018CB OVC070 BECMG 1702/1704 22015G25KT BECMG 1706/1708 25012KT

Decode

Departure Runways

ID Width Length Bearing (true) Bearing (mag) Surface Threshold Offset Overrun Length
03L 148 ft / 45 m 12,474 ft / 3,802 m 36.51° 32.03° Asphalt 984 ft / 300 m 393 ft / 120 m
03R 148 ft / 45 m 13,131 ft / 4,002 m 36.52° 32.04° Asphalt 984 ft / 300 m 393 ft / 120 m
21L 148 ft / 45 m 13,131 ft / 4,002 m 216.54° 212.06° Asphalt 984 ft / 300 m 393 ft / 120 m
21R 148 ft / 45 m 12,474 ft / 3,802 m 216.53° 212.05° Asphalt 984 ft / 300 m 393 ft / 120 m

LGSM

Details ICAO LGSM (SMI)
Name SAMOS
Region Greece
Timezone Europe/Athens (UTC+2.0)
Stats Elevation 19 ft / 6 m (AMSL)
Location 37.689012° 26.911123°
Runways 1
Magnetic Variation 4.802° E

METAR

LGSM 161450Z 17016KT 9999 SCT018 17/14 Q1015

Decode

TAF

Not found

Destination Runways

ID Width Length Bearing (true) Bearing (mag) Surface Threshold Offset Overrun Length
09 148 ft / 45 m 6,690 ft / 2,039 m 94.02° 89.22° Asphalt 230 ft / 70 m 0 ft / 0 m
27 148 ft / 45 m 6,690 ft / 2,039 m 274.03° 269.23° Asphalt 0 ft / 0 m 0 ft / 0 m

Popular Alternatives